sensor_id;sensor_type;location;lat;lon;timestamp;temperature;humidity
6164;DHT22;3114;48.362;10.994;2023-02-28T00:00:10;1.90;99.90
6164;DHT22;3114;48.362;10.994;2023-02-28T00:02:39;2.00;99.90
6164;DHT22;3114;48.362;10.994;2023-02-28T00:05:07;2.10;99.90
6164;DHT22;3114;48.362;10.994;2023-02-28T00:07:35;2.00;99.90
6164;DHT22;3114;48.362;10.994;2023-02-28T00:10:03;2.10;99.90
6164;DHT22;3114;48.362;10.994;2023-02-28T00:12:31;1.90;99.90
6164;DHT22;3114;48.362;10.994;2023-02-28T00:15:00;2.00;99.90
6164;DHT22;3114;48.362;10.994;2023-02-28T00:17:27;1.90;99.90
6164;DHT22;3114;48.362;10.994;2023-02-28T00:19:54;1.90;99.90
6164;DHT22;3114;48.362;10.994;2023-02-28T00:22:21;1.80;99.90
6164;DHT22;3114;48.362;10.994;2023-02-28T00:24:48;1.90;99.90
6164;DHT22;3114;48.362;10.994;2023-02-28T00:27:15;2.00;99.90
6164;DHT22;3114;48.362;10.994;2023-02-28T00:29:41;1.90;99.90
6164;DHT22;3114;48.362;10.994;2023-02-28T00:32:10;2.00;99.90
6164;DHT22;3114;48.362;10.994;2023-02-28T00:34:36;1.90;99.90
6164;DHT22;3114;48.362;10.994;2023-02-28T00:37:04;1.90;99.90
6164;DHT22;3114;48.362;10.994;2023-02-28T00:39:34;1.90;99.90
6164;DHT22;3114;48.362;10.994;2023-02-28T00:42:02;1.90;99.90
6164;DHT22;3114;48.362;10.994;2023-02-28T00:44:29;1.50;99.90
6164;DHT22;3114;48.362;10.994;2023-02-28T00:46:56;1.40;99.90
6164;DHT22;3114;48.362;10.994;2023-02-28T00:49:25;1.60;99.90
6164;DHT22;3114;48.362;10.994;2023-02-28T00:51:53;1.70;99.90
6164;DHT22;3114;48.362;10.994;2023-02-28T00:54:21;1.70;99.90
6164;DHT22;3114;48.362;10.994;2023-02-28T00:56:48;1.70;99.90
6164;DHT22;3114;48.362;10.994;2023-02-28T00:59:16;1.50;99.90
6164;DHT22;3114;48.362;10.994;2023-02-28T01:01:44;1.50;99.90
6164;DHT22;3114;48.362;10.994;2023-02-28T01:04:11;1.40;99.90
6164;DHT22;3114;48.362;10.994;2023-02-28T01:06:40;1.50;99.90
6164;DHT22;3114;48.362;10.994;2023-02-28T01:09:07;1.40;99.90
6164;DHT22;3114;48.362;10.994;2023-02-28T01:11:35;1.50;99.90
6164;DHT22;3114;48.362;10.994;2023-02-28T01:14:04;1.50;99.90
6164;DHT22;3114;48.362;10.994;2023-02-28T01:16:31;1.60;99.90
6164;DHT22;3114;48.362;10.994;2023-02-28T01:18:58;1.70;99.90
6164;DHT22;3114;48.362;10.994;2023-02-28T01:21:25;1.80;99.90
6164;DHT22;3114;48.362;10.994;2023-02-28T01:23:56;1.70;99.90
6164;DHT22;3114;48.362;10.994;2023-02-28T01:26:23;1.50;99.90
6164;DHT22;3114;48.362;10.994;2023-02-28T01:28:51;1.30;99.90
6164;DHT22;3114;48.362;10.994;2023-02-28T01:31:19;1.50;99.90
6164;DHT22;3114;48.362;10.994;2023-02-28T01:33:46;1.60;99.90
6164;DHT22;3114;48.362;10.994;2023-02-28T01:36:15;1.60;99.90
6164;DHT22;3114;48.362;10.994;2023-02-28T01:38:42;1.40;99.90
6164;DHT22;3114;48.362;10.994;2023-02-28T01:41:16;1.50;99.90
6164;DHT22;3114;48.362;10.994;2023-02-28T01:43:59;1.60;99.90
6164;DHT22;3114;48.362;10.994;2023-02-28T01:46:29;1.80;99.90
6164;DHT22;3114;48.362;10.994;2023-02-28T01:49:02;1.50;99.90
6164;DHT22;3114;48.362;10.994;2023-02-28T01:51:33;1.50;99.90
6164;DHT22;3114;48.362;10.994;2023-02-28T01:54:05;1.50;99.90
6164;DHT22;3114;48.362;10.994;2023-02-28T01:56:43;1.30;99.90
6164;DHT22;3114;48.362;10.994;2023-02-28T01:59:13;1.40;99.90
6164;DHT22;3114;48.362;10.994;2023-02-28T02:01:40;1.50;99.90
6164;DHT22;3114;48.362;10.994;2023-02-28T02:04:08;1.30;99.90
6164;DHT22;3114;48.362;10.994;2023-02-28T02:06:38;1.10;99.90
6164;DHT22;3114;48.362;10.994;2023-02-28T02:09:05;1.10;99.90
6164;DHT22;3114;48.362;10.994;2023-02-28T02:11:33;1.30;99.90
6164;DHT22;3114;48.362;10.994;2023-02-28T02:17:15;1.20;99.90
6164;DHT22;3114;48.362;10.994;2023-02-28T02:23:18;1.30;99.90
6164;DHT22;3114;48.362;10.994;2023-02-28T02:25:53;1.30;99.90
6164;DHT22;3114;48.362;10.994;2023-02-28T02:28:54;1.70;99.90
6164;DHT22;3114;48.362;10.994;2023-02-28T02:31:33;1.30;99.90
6164;DHT22;3114;48.362;10.994;2023-02-28T02:34:30;1.40;99.90
6164;DHT22;3114;48.362;10.994;2023-02-28T02:37:15;1.30;99.90
6164;DHT22;3114;48.362;10.994;2023-02-28T02:39:51;1.30;99.90
6164;DHT22;3114;48.362;10.994;2023-02-28T02:42:23;1.40;99.90
6164;DHT22;3114;48.362;10.994;2023-02-28T02:44:55;1.50;99.90
6164;DHT22;3114;48.362;10.994;2023-02-28T02:47:27;1.60;99.90
6164;DHT22;3114;48.362;10.994;2023-02-28T02:49:59;1.60;99.90
6164;DHT22;3114;48.362;10.994;2023-02-28T02:52:34;1.50;99.90
6164;DHT22;3114;48.362;10.994;2023-02-28T02:55:02;1.50;99.90
6164;DHT22;3114;48.362;10.994;2023-02-28T02:57:33;1.50;99.90
6164;DHT22;3114;48.362;10.994;2023-02-28T03:00:04;1.40;99.90
6164;DHT22;3114;48.362;10.994;2023-02-28T03:02:35;1.20;99.90
6164;DHT22;3114;48.362;10.994;2023-02-28T03:05:08;1.50;99.90
6164;DHT22;3114;48.362;10.994;2023-02-28T03:07:39;1.50;99.90
6164;DHT22;3114;48.362;10.994;2023-02-28T03:10:31;1.60;99.90
6164;DHT22;3114;48.362;10.994;2023-02-28T03:13:14;1.50;99.90
6164;DHT22;3114;48.362;10.994;2023-02-28T03:15:58;1.70;99.90
6164;DHT22;3114;48.362;10.994;2023-02-28T03:18:34;1.50;99.90
6164;DHT22;3114;48.362;10.994;2023-02-28T03:21:09;1.50;99.90
6164;DHT22;3114;48.362;10.994;2023-02-28T03:23:45;1.60;99.90
6164;DHT22;3114;48.362;10.994;2023-02-28T03:26:19;1.70;99.90
6164;DHT22;3114;48.362;10.994;2023-02-28T03:28:52;1.50;99.90
6164;DHT22;3114;48.362;10.994;2023-02-28T03:31:27;1.50;99.90
6164;DHT22;3114;48.362;10.994;2023-02-28T03:34:01;1.50;99.90
6164;DHT22;3114;48.362;10.994;2023-02-28T03:36:33;1.70;99.90
6164;DHT22;3114;48.362;10.994;2023-02-28T03:39:09;1.80;99.90
6164;DHT22;3114;48.362;10.994;2023-02-28T03:41:42;1.80;99.90
6164;DHT22;3114;48.362;10.994;2023-02-28T03:44:16;1.60;99.90
6164;DHT22;3114;48.362;10.994;2023-02-28T03:46:48;1.40;99.90
6164;DHT22;3114;48.362;10.994;2023-02-28T03:49:18;1.40;99.90
6164;DHT22;3114;48.362;10.994;2023-02-28T03:51:50;1.30;99.90
6164;DHT22;3114;48.362;10.994;2023-02-28T03:54:21;1.40;99.90
6164;DHT22;3114;48.362;10.994;2023-02-28T03:56:53;1.60;99.90
6164;DHT22;3114;48.362;10.994;2023-02-28T03:59:25;1.70;99.90
6164;DHT22;3114;48.362;10.994;2023-02-28T04:01:53;1.80;99.90
6164;DHT22;3114;48.362;10.994;2023-02-28T04:04:21;1.90;99.90
6164;DHT22;3114;48.362;10.994;2023-02-28T04:06:51;1.80;99.90
6164;DHT22;3114;48.362;10.994;2023-02-28T04:09:19;1.80;99.90
6164;DHT22;3114;48.362;10.994;2023-02-28T04:11:49;1.80;99.90
6164;DHT22;3114;48.362;10.994;2023-02-28T04:14:18;1.80;99.90
6164;DHT22;3114;48.362;10.994;2023-02-28T04:16:45;1.70;99.90
6164;DHT22;3114;48.362;10.994;2023-02-28T04:19:14;1.70;99.90
6164;DHT22;3114;48.362;10.994;2023-02-28T04:21:42;1.60;99.90
6164;DHT22;3114;48.362;10.994;2023-02-28T04:24:13;1.60;99.90
6164;DHT22;3114;48.362;10.994;2023-02-28T04:26:42;1.80;99.90
6164;DHT22;3114;48.362;10.994;2023-02-28T04:29:10;1.60;99.90
6164;DHT22;3114;48.362;10.994;2023-02-28T04:31:38;1.70;99.90
6164;DHT22;3114;48.362;10.994;2023-02-28T04:34:05;1.70;99.90
6164;DHT22;3114;48.362;10.994;2023-02-28T04:36:32;1.70;99.90
6164;DHT22;3114;48.362;10.994;2023-02-28T04:38:59;1.50;99.90
6164;DHT22;3114;48.362;10.994;2023-02-28T04:41:27;1.40;99.90
6164;DHT22;3114;48.362;10.994;2023-02-28T04:43:54;1.40;99.90
6164;DHT22;3114;48.362;10.994;2023-02-28T04:46:22;1.60;99.90
6164;DHT22;3114;48.362;10.994;2023-02-28T04:48:50;1.60;99.90
6164;DHT22;3114;48.362;10.994;2023-02-28T04:51:18;1.70;99.90
6164;DHT22;3114;48.362;10.994;2023-02-28T04:53:45;1.70;99.90
6164;DHT22;3114;48.362;10.994;2023-02-28T04:56:14;1.80;99.90
6164;DHT22;3114;48.362;10.994;2023-02-28T04:58:42;1.50;99.90
6164;DHT22;3114;48.362;10.994;2023-02-28T05:01:20;1.60;99.90
6164;DHT22;3114;48.362;10.994;2023-02-28T05:03:48;1.70;99.90
6164;DHT22;3114;48.362;10.994;2023-02-28T05:06:15;1.80;99.90
6164;DHT22;3114;48.362;10.994;2023-02-28T05:08:42;1.90;99.90
6164;DHT22;3114;48.362;10.994;2023-02-28T05:11:15;1.90;99.90
6164;DHT22;3114;48.362;10.994;2023-02-28T05:13:43;1.80;99.90
6164;DHT22;3114;48.362;10.994;2023-02-28T05:16:10;1.70;99.90
6164;DHT22;3114;48.362;10.994;2023-02-28T05:18:37;1.80;99.90
6164;DHT22;3114;48.362;10.994;2023-02-28T05:21:05;1.60;99.90
6164;DHT22;3114;48.362;10.994;2023-02-28T05:23:32;1.70;99.90
6164;DHT22;3114;48.362;10.994;2023-02-28T05:25:59;1.50;99.90
6164;DHT22;3114;48.362;10.994;2023-02-28T05:28:26;1.50;99.90
6164;DHT22;3114;48.362;10.994;2023-02-28T05:44:23;1.90;99.90
6164;DHT22;3114;48.362;10.994;2023-02-28T05:46:49;1.90;99.90
6164;DHT22;3114;48.362;10.994;2023-02-28T05:49:16;1.80;99.90
6164;DHT22;3114;48.362;10.994;2023-02-28T05:51:43;1.80;99.90
6164;DHT22;3114;48.362;10.994;2023-02-28T05:54:10;1.80;99.90
6164;DHT22;3114;48.362;10.994;2023-02-28T05:56:37;1.60;99.90
6164;DHT22;3114;48.362;10.994;2023-02-28T05:59:05;1.60;99.90
6164;DHT22;3114;48.362;10.994;2023-02-28T06:01:36;1.40;99.90
6164;DHT22;3114;48.362;10.994;2023-02-28T06:04:05;1.40;99.90
6164;DHT22;3114;48.362;10.994;2023-02-28T06:06:32;1.50;99.90
6164;DHT22;3114;48.362;10.994;2023-02-28T06:09:02;1.40;99.90
6164;DHT22;3114;48.362;10.994;2023-02-28T06:11:29;1.50;99.90
6164;DHT22;3114;48.362;10.994;2023-02-28T06:13:57;1.50;99.90
6164;DHT22;3114;48.362;10.994;2023-02-28T06:16:25;1.40;99.90
6164;DHT22;3114;48.362;10.994;2023-02-28T06:18:54;1.50;99.90
6164;DHT22;3114;48.362;10.994;2023-02-28T06:21:22;1.30;99.90
6164;DHT22;3114;48.362;10.994;2023-02-28T06:23:49;1.40;99.90
6164;DHT22;3114;48.362;10.994;2023-02-28T06:26:16;1.30;99.90
6164;DHT22;3114;48.362;10.994;2023-02-28T06:28:43;1.40;99.90
6164;DHT22;3114;48.362;10.994;2023-02-28T06:31:11;1.60;99.90
6164;DHT22;3114;48.362;10.994;2023-02-28T06:33:39;1.60;99.90
6164;DHT22;3114;48.362;10.994;2023-02-28T06:36:09;1.50;99.90
6164;DHT22;3114;48.362;10.994;2023-02-28T06:38:36;1.90;99.90
6164;DHT22;3114;48.362;10.994;2023-02-28T06:41:04;1.90;99.90
6164;DHT22;3114;48.362;10.994;2023-02-28T06:43:33;1.50;99.90
6164;DHT22;3114;48.362;10.994;2023-02-28T06:46:02;1.60;99.90
6164;DHT22;3114;48.362;10.994;2023-02-28T06:48:29;1.30;99.90
6164;DHT22;3114;48.362;10.994;2023-02-28T06:51:02;1.30;99.90
6164;DHT22;3114;48.362;10.994;2023-02-28T06:53:30;1.40;99.90
6164;DHT22;3114;48.362;10.994;2023-02-28T06:55:57;1.50;99.90
6164;DHT22;3114;48.362;10.994;2023-02-28T06:58:24;1.80;99.90
6164;DHT22;3114;48.362;10.994;2023-02-28T07:00:52;1.80;99.90
6164;DHT22;3114;48.362;10.994;2023-02-28T07:03:19;1.90;99.90
6164;DHT22;3114;48.362;10.994;2023-02-28T07:05:46;2.00;99.90
6164;DHT22;3114;48.362;10.994;2023-02-28T07:08:13;1.80;99.90
6164;DHT22;3114;48.362;10.994;2023-02-28T07:10:41;2.00;99.90
6164;DHT22;3114;48.362;10.994;2023-02-28T07:13:09;1.90;99.90
6164;DHT22;3114;48.362;10.994;2023-02-28T07:15:36;2.00;99.90
6164;DHT22;3114;48.362;10.994;2023-02-28T07:18:03;2.00;99.90
6164;DHT22;3114;48.362;10.994;2023-02-28T07:20:31;2.00;99.90
6164;DHT22;3114;48.362;10.994;2023-02-28T07:22:58;1.90;99.90
6164;DHT22;3114;48.362;10.994;2023-02-28T07:25:26;2.10;99.90
6164;DHT22;3114;48.362;10.994;2023-02-28T07:27:55;2.30;99.90
6164;DHT22;3114;48.362;10.994;2023-02-28T07:30:22;1.90;99.90
6164;DHT22;3114;48.362;10.994;2023-02-28T07:32:49;1.90;99.90
6164;DHT22;3114;48.362;10.994;2023-02-28T07:35:16;2.00;99.90
6164;DHT22;3114;48.362;10.994;2023-02-28T07:37:43;2.00;99.90
6164;DHT22;3114;48.362;10.994;2023-02-28T07:40:13;2.10;99.90
6164;DHT22;3114;48.362;10.994;2023-02-28T07:42:41;2.10;99.90
6164;DHT22;3114;48.362;10.994;2023-02-28T07:45:10;2.10;99.90
6164;DHT22;3114;48.362;10.994;2023-02-28T07:47:38;2.20;99.90
6164;DHT22;3114;48.362;10.994;2023-02-28T07:50:05;2.20;99.90
6164;DHT22;3114;48.362;10.994;2023-02-28T07:52:32;2.20;99.90
6164;DHT22;3114;48.362;10.994;2023-02-28T07:54:59;2.30;99.90
6164;DHT22;3114;48.362;10.994;2023-02-28T07:57:26;2.30;99.90
6164;DHT22;3114;48.362;10.994;2023-02-28T07:59:56;2.40;99.90
6164;DHT22;3114;48.362;10.994;2023-02-28T08:02:27;2.30;99.90
6164;DHT22;3114;48.362;10.994;2023-02-28T08:04:54;2.30;99.90
6164;DHT22;3114;48.362;10.994;2023-02-28T08:07:21;2.40;99.90
6164;DHT22;3114;48.362;10.994;2023-02-28T08:09:48;2.50;99.90
6164;DHT22;3114;48.362;10.994;2023-02-28T08:12:15;2.50;99.90
6164;DHT22;3114;48.362;10.994;2023-02-28T08:14:42;2.50;99.90
6164;DHT22;3114;48.362;10.994;2023-02-28T08:17:09;2.60;99.90
6164;DHT22;3114;48.362;10.994;2023-02-28T08:19:38;2.60;99.90
6164;DHT22;3114;48.362;10.994;2023-02-28T08:22:05;2.60;99.90
6164;DHT22;3114;48.362;10.994;2023-02-28T08:24:32;2.70;99.90
6164;DHT22;3114;48.362;10.994;2023-02-28T08:26:59;2.00;99.90
6164;DHT22;3114;48.362;10.994;2023-02-28T08:29:25;2.00;99.90
6164;DHT22;3114;48.362;10.994;2023-02-28T08:31:52;2.30;99.90
6164;DHT22;3114;48.362;10.994;2023-02-28T08:34:19;2.60;99.90
6164;DHT22;3114;48.362;10.994;2023-02-28T08:36:47;2.60;99.90
6164;DHT22;3114;48.362;10.994;2023-02-28T08:39:14;2.50;99.90
6164;DHT22;3114;48.362;10.994;2023-02-28T08:41:42;2.70;99.90
6164;DHT22;3114;48.362;10.994;2023-02-28T08:44:09;2.70;99.90
6164;DHT22;3114;48.362;10.994;2023-02-28T08:46:36;2.60;99.90
6164;DHT22;3114;48.362;10.994;2023-02-28T08:49:04;2.70;99.90
6164;DHT22;3114;48.362;10.994;2023-02-28T08:51:32;2.80;99.90
6164;DHT22;3114;48.362;10.994;2023-02-28T08:54:00;2.60;99.90
6164;DHT22;3114;48.362;10.994;2023-02-28T08:56:28;2.80;99.90
6164;DHT22;3114;48.362;10.994;2023-02-28T08:58:56;2.70;99.90
6164;DHT22;3114;48.362;10.994;2023-02-28T09:01:24;2.80;99.90
6164;DHT22;3114;48.362;10.994;2023-02-28T09:03:52;3.00;99.90
6164;DHT22;3114;48.362;10.994;2023-02-28T09:06:21;3.20;99.90
6164;DHT22;3114;48.362;10.994;2023-02-28T09:08:49;3.30;99.90
6164;DHT22;3114;48.362;10.994;2023-02-28T09:11:18;3.20;99.90
6164;DHT22;3114;48.362;10.994;2023-02-28T09:13:45;3.00;99.90
6164;DHT22;3114;48.362;10.994;2023-02-28T09:16:14;2.90;99.90
6164;DHT22;3114;48.362;10.994;2023-02-28T09:18:42;3.00;99.90
6164;DHT22;3114;48.362;10.994;2023-02-28T09:21:11;2.90;99.90
6164;DHT22;3114;48.362;10.994;2023-02-28T09:23:40;3.00;99.90
6164;DHT22;3114;48.362;10.994;2023-02-28T09:26:07;3.20;99.90
6164;DHT22;3114;48.362;10.994;2023-02-28T09:28:36;3.40;99.90
6164;DHT22;3114;48.362;10.994;2023-02-28T09:31:03;3.70;99.90
6164;DHT22;3114;48.362;10.994;2023-02-28T09:33:30;3.90;99.90
6164;DHT22;3114;48.362;10.994;2023-02-28T09:36:00;3.60;99.90
6164;DHT22;3114;48.362;10.994;2023-02-28T09:38:28;3.60;99.90
6164;DHT22;3114;48.362;10.994;2023-02-28T09:40:56;3.30;99.90
6164;DHT22;3114;48.362;10.994;2023-02-28T09:43:26;3.20;99.90
6164;DHT22;3114;48.362;10.994;2023-02-28T09:46:00;3.20;99.90
6164;DHT22;3114;48.362;10.994;2023-02-28T09:48:32;3.20;99.90
6164;DHT22;3114;48.362;10.994;2023-02-28T09:51:04;3.30;99.90
6164;DHT22;3114;48.362;10.994;2023-02-28T09:53:33;3.50;99.90
6164;DHT22;3114;48.362;10.994;2023-02-28T09:56:04;3.80;99.90
6164;DHT22;3114;48.362;10.994;2023-02-28T09:58:38;3.70;99.90
6164;DHT22;3114;48.362;10.994;2023-02-28T10:01:17;4.00;99.90
6164;DHT22;3114;48.362;10.994;2023-02-28T10:03:53;4.10;99.90
6164;DHT22;3114;48.362;10.994;2023-02-28T10:06:22;4.10;99.90
6164;DHT22;3114;48.362;10.994;2023-02-28T10:08:57;4.20;99.90
6164;DHT22;3114;48.362;10.994;2023-02-28T10:11:28;4.30;99.90
6164;DHT22;3114;48.362;10.994;2023-02-28T10:13:58;4.30;99.90
6164;DHT22;3114;48.362;10.994;2023-02-28T10:16:32;4.40;99.90
6164;DHT22;3114;48.362;10.994;2023-02-28T10:19:04;4.50;99.90
6164;DHT22;3114;48.362;10.994;2023-02-28T10:21:35;4.00;99.90
6164;DHT22;3114;48.362;10.994;2023-02-28T10:24:09;4.10;99.90
6164;DHT22;3114;48.362;10.994;2023-02-28T10:26:38;4.10;99.90
6164;DHT22;3114;48.362;10.994;2023-02-28T10:29:07;4.00;99.90
6164;DHT22;3114;48.362;10.994;2023-02-28T10:31:36;3.90;99.90
6164;DHT22;3114;48.362;10.994;2023-02-28T10:34:02;4.10;99.90
6164;DHT22;3114;48.362;10.994;2023-02-28T10:36:32;4.00;99.90
6164;DHT22;3114;48.362;10.994;2023-02-28T10:38:59;4.20;99.90
6164;DHT22;3114;48.362;10.994;2023-02-28T10:41:30;4.40;99.90
6164;DHT22;3114;48.362;10.994;2023-02-28T10:44:14;4.30;99.90
6164;DHT22;3114;48.362;10.994;2023-02-28T10:46:43;4.60;99.90
6164;DHT22;3114;48.362;10.994;2023-02-28T10:49:17;4.80;99.90
6164;DHT22;3114;48.362;10.994;2023-02-28T10:51:47;4.30;99.90
6164;DHT22;3114;48.362;10.994;2023-02-28T10:54:16;4.10;99.90
6164;DHT22;3114;48.362;10.994;2023-02-28T10:56:44;4.40;99.90
6164;DHT22;3114;48.362;10.994;2023-02-28T10:59:28;4.40;99.90
6164;DHT22;3114;48.362;10.994;2023-02-28T11:01:57;4.50;99.90
6164;DHT22;3114;48.362;10.994;2023-02-28T11:04:35;4.70;99.90
6164;DHT22;3114;48.362;10.994;2023-02-28T11:07:06;4.70;99.90
6164;DHT22;3114;48.362;10.994;2023-02-28T11:09:44;4.80;99.90
6164;DHT22;3114;48.362;10.994;2023-02-28T11:12:21;4.90;99.90
6164;DHT22;3114;48.362;10.994;2023-02-28T11:14:50;5.00;99.90
6164;DHT22;3114;48.362;10.994;2023-02-28T11:17:22;5.20;99.90
6164;DHT22;3114;48.362;10.994;2023-02-28T11:19:51;5.40;99.90
6164;DHT22;3114;48.362;10.994;2023-02-28T11:22:22;5.60;99.90
6164;DHT22;3114;48.362;10.994;2023-02-28T11:27:26;9.50;99.90
6164;DHT22;3114;48.362;10.994;2023-02-28T11:29:53;11.40;99.90
6164;DHT22;3114;48.362;10.994;2023-02-28T11:32:22;13.60;99.90
6164;DHT22;3114;48.362;10.994;2023-02-28T11:35:00;15.20;99.90
6164;DHT22;3114;48.362;10.994;2023-02-28T11:37:28;16.30;99.90
6164;DHT22;3114;48.362;10.994;2023-02-28T11:39:55;16.20;99.90
6164;DHT22;3114;48.362;10.994;2023-02-28T11:42:43;16.50;99.90
6164;DHT22;3114;48.362;10.994;2023-02-28T11:45:21;16.40;99.90
6164;DHT22;3114;48.362;10.994;2023-02-28T11:47:57;16.50;99.90
6164;DHT22;3114;48.362;10.994;2023-02-28T11:50:39;16.60;99.90
6164;DHT22;3114;48.362;10.994;2023-02-28T11:53:18;16.10;99.90
6164;DHT22;3114;48.362;10.994;2023-02-28T11:55:50;15.40;99.90
6164;DHT22;3114;48.362;10.994;2023-02-28T11:58:33;13.40;99.90
6164;DHT22;3114;48.362;10.994;2023-02-28T12:01:11;12.30;99.90
6164;DHT22;3114;48.362;10.994;2023-02-28T12:03:55;12.20;99.90
6164;DHT22;3114;48.362;10.994;2023-02-28T12:06:28;13.90;99.90
6164;DHT22;3114;48.362;10.994;2023-02-28T12:09:04;15.10;99.90
6164;DHT22;3114;48.362;10.994;2023-02-28T12:11:44;17.40;99.90
6164;DHT22;3114;48.362;10.994;2023-02-28T12:14:36;18.00;99.90
6164;DHT22;3114;48.362;10.994;2023-02-28T12:17:18;19.30;99.90
6164;DHT22;3114;48.362;10.994;2023-02-28T12:19:55;20.90;99.90
6164;DHT22;3114;48.362;10.994;2023-02-28T12:22:30;21.60;99.90
6164;DHT22;3114;48.362;10.994;2023-02-28T12:25:20;22.30;99.90
6164;DHT22;3114;48.362;10.994;2023-02-28T12:27:49;23.40;99.90
6164;DHT22;3114;48.362;10.994;2023-02-28T12:30:22;23.10;99.90
6164;DHT22;3114;48.362;10.994;2023-02-28T12:32:54;23.30;99.90
6164;DHT22;3114;48.362;10.994;2023-02-28T12:35:26;23.10;99.90
6164;DHT22;3114;48.362;10.994;2023-02-28T12:37:59;21.90;99.90
6164;DHT22;3114;48.362;10.994;2023-02-28T12:40:33;23.40;99.90
6164;DHT22;3114;48.362;10.994;2023-02-28T12:43:08;22.60;99.90
6164;DHT22;3114;48.362;10.994;2023-02-28T12:45:40;23.30;99.90
6164;DHT22;3114;48.362;10.994;2023-02-28T12:48:11;23.40;99.90
6164;DHT22;3114;48.362;10.994;2023-02-28T12:50:42;23.20;99.90
6164;DHT22;3114;48.362;10.994;2023-02-28T12:53:13;23.00;99.90
6164;DHT22;3114;48.362;10.994;2023-02-28T12:55:45;23.00;99.90
6164;DHT22;3114;48.362;10.994;2023-02-28T12:58:23;22.60;99.90
6164;DHT22;3114;48.362;10.994;2023-02-28T13:01:14;21.90;99.90
6164;DHT22;3114;48.362;10.994;2023-02-28T13:04:19;23.90;99.90
6164;DHT22;3114;48.362;10.994;2023-02-28T13:07:06;25.80;99.90
6164;DHT22;3114;48.362;10.994;2023-02-28T13:09:37;26.70;99.90
6164;DHT22;3114;48.362;10.994;2023-02-28T13:12:13;26.80;99.90
6164;DHT22;3114;48.362;10.994;2023-02-28T13:14:40;27.80;99.90
6164;DHT22;3114;48.362;10.994;2023-02-28T13:17:11;27.40;99.90
6164;DHT22;3114;48.362;10.994;2023-02-28T13:19:41;26.70;99.90
6164;DHT22;3114;48.362;10.994;2023-02-28T13:22:18;26.40;99.90
6164;DHT22;3114;48.362;10.994;2023-02-28T13:24:48;24.60;99.90
6164;DHT22;3114;48.362;10.994;2023-02-28T13:27:34;23.90;99.90
6164;DHT22;3114;48.362;10.994;2023-02-28T13:33:26;24.90;99.90
6164;DHT22;3114;48.362;10.994;2023-02-28T13:36:28;26.60;99.90
6164;DHT22;3114;48.362;10.994;2023-02-28T13:38:59;28.10;99.90
6164;DHT22;3114;48.362;10.994;2023-02-28T13:41:44;27.10;99.90
6164;DHT22;3114;48.362;10.994;2023-02-28T13:44:13;27.00;99.90
6164;DHT22;3114;48.362;10.994;2023-02-28T13:49:44;26.10;99.90
6164;DHT22;3114;48.362;10.994;2023-02-28T13:52:16;26.20;99.90
6164;DHT22;3114;48.362;10.994;2023-02-28T13:54:56;24.90;99.90
6164;DHT22;3114;48.362;10.994;2023-02-28T13:57:38;21.40;99.90
6164;DHT22;3114;48.362;10.994;2023-02-28T14:00:18;21.80;99.90
6164;DHT22;3114;48.362;10.994;2023-02-28T14:03:07;21.20;99.90
6164;DHT22;3114;48.362;10.994;2023-02-28T14:05:37;20.50;99.90
6164;DHT22;3114;48.362;10.994;2023-02-28T14:08:08;20.60;99.90
6164;DHT22;3114;48.362;10.994;2023-02-28T14:10:43;19.30;99.90
6164;DHT22;3114;48.362;10.994;2023-02-28T14:13:14;17.70;99.90
6164;DHT22;3114;48.362;10.994;2023-02-28T14:16:03;17.30;99.90
6164;DHT22;3114;48.362;10.994;2023-02-28T14:18:33;16.70;99.90
6164;DHT22;3114;48.362;10.994;2023-02-28T14:21:09;16.60;99.90
6164;DHT22;3114;48.362;10.994;2023-02-28T14:24:09;17.50;99.90
6164;DHT22;3114;48.362;10.994;2023-02-28T14:26:58;17.80;99.90
6164;DHT22;3114;48.362;10.994;2023-02-28T14:32:33;16.00;99.90
6164;DHT22;3114;48.362;10.994;2023-02-28T14:35:11;14.80;99.90
6164;DHT22;3114;48.362;10.994;2023-02-28T14:37:41;13.70;99.90
6164;DHT22;3114;48.362;10.994;2023-02-28T14:40:15;12.70;99.90
6164;DHT22;3114;48.362;10.994;2023-02-28T14:42:49;12.80;99.90
6164;DHT22;3114;48.362;10.994;2023-02-28T14:45:22;12.60;99.90
6164;DHT22;3114;48.362;10.994;2023-02-28T14:47:50;12.60;99.90
6164;DHT22;3114;48.362;10.994;2023-02-28T14:50:19;12.10;99.90
6164;DHT22;3114;48.362;10.994;2023-02-28T14:52:46;11.30;99.90
6164;DHT22;3114;48.362;10.994;2023-02-28T14:55:15;11.10;99.90
6164;DHT22;3114;48.362;10.994;2023-02-28T14:57:52;11.00;99.90
6164;DHT22;3114;48.362;10.994;2023-02-28T15:00:23;10.90;99.90
6164;DHT22;3114;48.362;10.994;2023-02-28T15:02:52;11.10;99.90
6164;DHT22;3114;48.362;10.994;2023-02-28T15:05:24;11.20;99.90
6164;DHT22;3114;48.362;10.994;2023-02-28T15:08:03;10.90;99.90
6164;DHT22;3114;48.362;10.994;2023-02-28T15:10:30;10.60;99.90
6164;DHT22;3114;48.362;10.994;2023-02-28T15:13:01;10.20;99.90
6164;DHT22;3114;48.362;10.994;2023-02-28T15:15:39;10.00;99.90
6164;DHT22;3114;48.362;10.994;2023-02-28T15:18:13;9.70;99.90
6164;DHT22;3114;48.362;10.994;2023-02-28T15:20:42;9.40;99.90
6164;DHT22;3114;48.362;10.994;2023-02-28T15:23:11;9.40;99.90
6164;DHT22;3114;48.362;10.994;2023-02-28T15:25:39;9.10;99.90
6164;DHT22;3114;48.362;10.994;2023-02-28T15:28:14;9.30;99.90
6164;DHT22;3114;48.362;10.994;2023-02-28T15:30:55;9.30;99.90
6164;DHT22;3114;48.362;10.994;2023-02-28T15:33:23;9.40;99.90
6164;DHT22;3114;48.362;10.994;2023-02-28T15:35:51;9.20;99.90
6164;DHT22;3114;48.362;10.994;2023-02-28T15:38:22;8.90;99.90
6164;DHT22;3114;48.362;10.994;2023-02-28T15:40:52;8.90;99.90
6164;DHT22;3114;48.362;10.994;2023-02-28T15:43:27;8.70;99.90
6164;DHT22;3114;48.362;10.994;2023-02-28T15:45:59;8.80;99.90
6164;DHT22;3114;48.362;10.994;2023-02-28T15:48:29;8.80;99.90
6164;DHT22;3114;48.362;10.994;2023-02-28T15:51:01;8.60;99.90
6164;DHT22;3114;48.362;10.994;2023-02-28T15:53:31;8.50;99.90
6164;DHT22;3114;48.362;10.994;2023-02-28T15:56:01;8.40;99.90
6164;DHT22;3114;48.362;10.994;2023-02-28T15:58:30;8.40;99.90
6164;DHT22;3114;48.362;10.994;2023-02-28T16:01:05;8.30;99.90
6164;DHT22;3114;48.362;10.994;2023-02-28T16:03:40;8.20;99.90
6164;DHT22;3114;48.362;10.994;2023-02-28T16:06:32;8.20;99.90
6164;DHT22;3114;48.362;10.994;2023-02-28T16:08:59;7.60;99.90
6164;DHT22;3114;48.362;10.994;2023-02-28T16:11:26;7.40;99.90
6164;DHT22;3114;48.362;10.994;2023-02-28T16:13:55;7.50;99.90
6164;DHT22;3114;48.362;10.994;2023-02-28T16:16:24;7.50;99.90
6164;DHT22;3114;48.362;10.994;2023-02-28T16:18:52;7.40;99.90
6164;DHT22;3114;48.362;10.994;2023-02-28T16:21:20;7.30;99.90
6164;DHT22;3114;48.362;10.994;2023-02-28T16:23:47;7.40;99.90
6164;DHT22;3114;48.362;10.994;2023-02-28T16:26:19;7.00;99.90
6164;DHT22;3114;48.362;10.994;2023-02-28T16:28:47;6.90;99.90
6164;DHT22;3114;48.362;10.994;2023-02-28T16:31:16;7.00;99.90
6164;DHT22;3114;48.362;10.994;2023-02-28T16:33:44;7.00;99.90
6164;DHT22;3114;48.362;10.994;2023-02-28T16:36:14;6.80;99.90
6164;DHT22;3114;48.362;10.994;2023-02-28T16:38:41;6.80;99.90
6164;DHT22;3114;48.362;10.994;2023-02-28T16:41:12;6.90;99.90
6164;DHT22;3114;48.362;10.994;2023-02-28T16:43:45;6.90;99.90
6164;DHT22;3114;48.362;10.994;2023-02-28T16:46:12;6.90;99.90
6164;DHT22;3114;48.362;10.994;2023-02-28T16:48:41;7.00;99.90
6164;DHT22;3114;48.362;10.994;2023-02-28T16:51:11;6.80;99.90
6164;DHT22;3114;48.362;10.994;2023-02-28T16:53:38;6.80;99.90